^^
Weerstation Beverwaard
 
Daily Summary for December 14, 2018 Units:  Both    English   Metric

Notice: Undefined index: PHPSELF in C:\OpenGrADS\Contents\tmp\WU-History-inc.php on line 388
Daily Weekly Monthly Yearly Custom
  Current: High: Low: Average:
Temperature: 34.3 °F /  1.3 °C 34.3 °F /  1.3 °C 30 °F /  -1.1 °C 31.3 °F /  -0.4 °C
Dew Point: 32.9 °F /  0.5 °C 33.1 °F /  0.6 °C 28.8 °F /  -1.8 °C 29.8 °F /  -1.2 °C
Humidity: 94% 100% 93% 95%
Wind Speed: 8.1mph /  13.0km/h 8.1mph /  13.0km/h - 5mph /  8km/h
Wind Gust: 8.1mph /  13.0km/h 8.1mph /  13.0km/h - -
WindENE - - NE
Pressure: 30.2 in /  1023.6 hPa 30.2 in /  1024.1 hPa 30.2 in /  1021.8 hPa -
Precipitation: 0.01 in /  0.2 mm      
Historical Graphs
 
 
Tabular Data for December 14, 2018
Time Temperature Dew Point Pressure Wind Wind Speed Wind Gust Humidity Rainfall Rate (Hourly) solar Conditions
00:04 32 °F /  0.0 °C 30.2 °F /  -1.0 °C 30.2in /  1022.2hPa ENE 8.1mph /  13.0km/h 8.1mph /  13.0km/h 93% 0in /  0.0mm 0.00 W/m2 RA
00:09 32 °F /  0.0 °C 30.2 °F /  -1.0 °C 30.2in /  1022.2hPa ENE 8.1mph /  13.0km/h 8.1mph /  13.0km/h 93% 0in /  0.0mm 0.00 W/m2 RA
00:14 32 °F /  0.0 °C 30.2 °F /  -1.0 °C 30.2in /  1022.2hPa ENE 8.1mph /  13.0km/h 8.1mph /  13.0km/h 93% 0in /  0.0mm 0.00 W/m2 CLR
00:19 31.8 °F /  -0.1 °C 30 °F /  -1.1 °C 30.2in /  1022.2hPa ENE 8.1mph /  13.0km/h 8.1mph /  13.0km/h 93% 0in /  0.0mm 0.00 W/m2 CLR
00:24 31.8 °F /  -0.1 °C 30 °F /  -1.1 °C 30.2in /  1022.2hPa ENE 8.1mph /  13.0km/h 8.1mph /  13.0km/h 93% 0in /  0.0mm 0.00 W/m2 CLR
00:29 31.8 °F /  -0.1 °C 30 °F /  -1.1 °C 30.2in /  1022.1hPa ENE 8.1mph /  13.0km/h 8.1mph /  13.0km/h 93% 0in /  0.0mm 0.00 W/m2 CLR
00:34 31.6 °F /  -0.2 °C 29.8 °F /  -1.2 °C 30.2in /  1022.2hPa ENE 8.1mph /  13.0km/h 8.1mph /  13.0km/h 93% 0in /  0.0mm 0.00 W/m2 CLR
00:39 31.6 °F /  -0.2 °C 29.8 °F /  -1.2 °C 30.2in /  1022.2hPa ENE 8.1mph /  13.0km/h 8.1mph /  13.0km/h 93% 0in /  0.0mm 0.00 W/m2 CLR
00:44 31.6 °F /  -0.2 °C 29.8 °F /  -1.2 °C 30.2in /  1022.2hPa ENE 8.1mph /  13.0km/h 8.1mph /  13.0km/h 93% 0in /  0.0mm 0.00 W/m2 CLR
00:49 31.6 °F /  -0.2 °C 29.8 °F /  -1.2 °C 30.2in /  1022.2hPa ENE 8.1mph /  13.0km/h 8.1mph /  13.0km/h 93% 0in /  0.0mm 0.00 W/m2 CLR
00:54 31.6 °F /  -0.2 °C 29.8 °F /  -1.2 °C 30.2in /  1022.2hPa ENE 8.1mph /  13.0km/h 8.1mph /  13.0km/h 93% 0in /  0.0mm 0.00 W/m2 CLR
00:59 31.6 °F /  -0.2 °C 29.8 °F /  -1.2 °C 30.2in /  1022.1hPa ENE 8.1mph /  13.0km/h 8.1mph /  13.0km/h 93% 0in /  0.0mm 0.00 W/m2 CLR
01:04 31.6 °F /  -0.2 °C 29.8 °F /  -1.2 °C 30.2in /  1022.0hPa ENE 8.1mph /  13.0km/h 8.1mph /  13.0km/h 93% 0in /  0.0mm 0.00 W/m2 CLR
01:09 31.6 °F /  -0.2 °C 29.8 °F /  -1.2 °C 30.2in /  1021.9hPa ENE 8.1mph /  13.0km/h 8.1mph /  13.0km/h 93% 0in /  0.0mm 0.00 W/m2 CLR
01:14 31.5 °F /  -0.3 °C 29.7 °F /  -1.3 °C 30.2in /  1021.9hPa ENE 8.1mph /  13.0km/h 8.1mph /  13.0km/h 93% 0in /  0.0mm 0.00 W/m2 CLR
01:19 31.5 °F /  -0.3 °C 29.7 °F /  -1.3 °C 30.2in /  1021.9hPa ENE 8.1mph /  13.0km/h 8.1mph /  13.0km/h 93% 0in /  0.0mm 0.00 W/m2 CLR
01:24 31.5 °F /  -0.3 °C 29.7 °F /  -1.3 °C 30.2in /  1021.8hPa ENE 8.1mph /  13.0km/h 8.1mph /  13.0km/h 93% 0in /  0.0mm 0.00 W/m2 CLR
01:29 31.5 °F /  -0.3 °C 29.7 °F /  -1.3 °C 30.2in /  1022.0hPa ENE 8.1mph /  13.0km/h 8.1mph /  13.0km/h 93% 0in /  0.0mm 0.00 W/m2 CLR
01:34 31.5 °F /  -0.3 °C 29.7 °F /  -1.3 °C 30.2in /  1022.1hPa ENE 6.9mph /  11.1km/h 6.9mph /  11.1km/h 93% 0in /  0.0mm 0.00 W/m2 CLR
01:39 31.3 °F /  -0.4 °C 29.5 °F /  -1.4 °C 30.2in /  1022.1hPa ENE 6.9mph /  11.1km/h 6.9mph /  11.1km/h 93% 0in /  0.0mm 0.00 W/m2 CLR
01:44 31.3 °F /  -0.4 °C 29.5 °F /  -1.4 °C 30.2in /  1022.1hPa ENE 6.9mph /  11.1km/h 6.9mph /  11.1km/h 93% 0in /  0.0mm 0.00 W/m2 CLR
01:49 31.3 °F /  -0.4 °C 29.5 °F /  -1.4 °C 30.2in /  1022.1hPa ENE 6.9mph /  11.1km/h 6.9mph /  11.1km/h 93% 0in /  0.0mm 0.00 W/m2 CLR
01:54 31.3 °F /  -0.4 °C 29.5 °F /  -1.4 °C 30.2in /  1022.2hPa ENE 6.9mph /  11.1km/h 6.9mph /  11.1km/h 93% 0in /  0.0mm 0.00 W/m2 CLR
01:59 31.3 °F /  -0.4 °C 29.5 °F /  -1.4 °C 30.2in /  1022.2hPa ENE 6.9mph /  11.1km/h 6.9mph /  11.1km/h 93% 0in /  0.0mm 0.00 W/m2 CLR
02:04 31.3 °F /  -0.4 °C 29.7 °F /  -1.3 °C 30.2in /  1022.2hPa NE 5.8mph /  9.3km/h 5.8mph /  9.3km/h 94% 0in /  0.0mm 0.00 W/m2 CLR
02:09 31.1 °F /  -0.5 °C 29.3 °F /  -1.5 °C 30.2in /  1022.3hPa NE 5.8mph /  9.3km/h 5.8mph /  9.3km/h 93% 0in /  0.0mm 0.00 W/m2 CLR
02:14 31.1 °F /  -0.5 °C 29.3 °F /  -1.5 °C 30.2in /  1022.3hPa NE 5.8mph /  9.3km/h 5.8mph /  9.3km/h 93% 0in /  0.0mm 0.00 W/m2 CLR
02:19 31.1 °F /  -0.5 °C 29.3 °F /  -1.5 °C 30.2in /  1022.2hPa NE 5.8mph /  9.3km/h 5.8mph /  9.3km/h 93% 0in /  0.0mm 0.00 W/m2 CLR
02:24 31.1 °F /  -0.5 °C 29.3 °F /  -1.5 °C 30.2in /  1022.2hPa NE 5.8mph /  9.3km/h 5.8mph /  9.3km/h 93% 0in /  0.0mm 0.00 W/m2 CLR
02:29 31.1 °F /  -0.5 °C 29.7 °F /  -1.3 °C 30.2in /  1022.2hPa NE 5.8mph /  9.3km/h 5.8mph /  9.3km/h 94% 0in /  0.0mm 0.00 W/m2 CLR
02:34 31.1 °F /  -0.5 °C 29.7 °F /  -1.3 °C 30.2in /  1022.2hPa NE 6.9mph /  11.1km/h 6.9mph /  11.1km/h 94% 0in /  0.0mm 0.00 W/m2 CLR
02:39 31.1 °F /  -0.5 °C 29.7 °F /  -1.3 °C 30.2in /  1022.3hPa NE 6.9mph /  11.1km/h 6.9mph /  11.1km/h 94% 0in /  0.0mm 0.00 W/m2 CLR
02:44 31.1 °F /  -0.5 °C 29.7 °F /  -1.3 °C 30.2in /  1022.3hPa NE 6.9mph /  11.1km/h 6.9mph /  11.1km/h 94% 0in /  0.0mm 0.00 W/m2 CLR
02:49 31.1 °F /  -0.5 °C 29.7 °F /  -1.3 °C 30.2in /  1022.3hPa NE 6.9mph /  11.1km/h 6.9mph /  11.1km/h 94% 0in /  0.0mm 0.00 W/m2 CLR
02:54 31.1 °F /  -0.5 °C 29.7 °F /  -1.3 °C 30.2in /  1022.3hPa NE 6.9mph /  11.1km/h 6.9mph /  11.1km/h 94% 0in /  0.0mm 0.00 W/m2 CLR
02:59 30.9 °F /  -0.6 °C 29.5 °F /  -1.4 °C 30.2in /  1022.2hPa NE 6.9mph /  11.1km/h 6.9mph /  11.1km/h 94% 0in /  0.0mm 0.00 W/m2 CLR
03:04 31.1 °F /  -0.5 °C 29.7 °F /  -1.3 °C 30.2in /  1022.2hPa ENE 5.8mph /  9.3km/h 5.8mph /  9.3km/h 94% 0in /  0.0mm 0.00 W/m2 CLR
03:09 31.1 °F /  -0.5 °C 29.7 °F /  -1.3 °C 30.2in /  1022.2hPa ENE 5.8mph /  9.3km/h 5.8mph /  9.3km/h 94% 0in /  0.0mm 0.00 W/m2 CLR
03:14 30.9 °F /  -0.6 °C 29.5 °F /  -1.4 °C 30.2in /  1022.3hPa ENE 5.8mph /  9.3km/h 5.8mph /  9.3km/h 94% 0in /  0.0mm 0.00 W/m2 CLR
03:19 30.9 °F /  -0.6 °C 29.5 °F /  -1.4 °C 30.2in /  1022.3hPa ENE 5.8mph /  9.3km/h 5.8mph /  9.3km/h 94% 0in /  0.0mm 0.00 W/m2 CLR
03:24 30.9 °F /  -0.6 °C 30.9 °F /  -0.6 °C 30.2in /  1022.2hPa ENE 5.8mph /  9.3km/h 5.8mph /  9.3km/h 100% 0in /  0.0mm 0.00 W/m2 CLR
03:29 30.9 °F /  -0.6 °C 29.5 °F /  -1.4 °C 30.2in /  1022.2hPa ENE 5.8mph /  9.3km/h 5.8mph /  9.3km/h 94% 0in /  0.0mm 0.00 W/m2 CLR
03:34 30.7 °F /  -0.7 °C 29.3 °F /  -1.5 °C 30.2in /  1022.2hPa NE 4.6mph /  7.4km/h 4.6mph /  7.4km/h 94% 0in /  0.0mm 0.00 W/m2 CLR
03:39 30.7 °F /  -0.7 °C 29.3 °F /  -1.5 °C 30.2in /  1022.2hPa NE 4.6mph /  7.4km/h 4.6mph /  7.4km/h 94% 0in /  0.0mm 0.00 W/m2 CLR
03:44 30.7 °F /  -0.7 °C 29.3 °F /  -1.5 °C 30.2in /  1022.2hPa NE 4.6mph /  7.4km/h 4.6mph /  7.4km/h 94% 0in /  0.0mm 0.00 W/m2 CLR
03:49 30.7 °F /  -0.7 °C 29.1 °F /  -1.6 °C 30.2in /  1022.2hPa NE 4.6mph /  7.4km/h 4.6mph /  7.4km/h 94% 0in /  0.0mm 0.00 W/m2 CLR
03:53 30.7 °F /  -0.7 °C 29.1 °F /  -1.6 °C 30.2in /  1022.2hPa NE 4.6mph /  7.4km/h 4.6mph /  7.4km/h 94% 0in /  0.0mm 0.00 W/m2 CLR
03:59 30.6 °F /  -0.8 °C 29.1 °F /  -1.6 °C 30.2in /  1022.2hPa NE 4.6mph /  7.4km/h 4.6mph /  7.4km/h 94% 0in /  0.0mm 0.00 W/m2 CLR
04:04 30.6 °F /  -0.8 °C 29.1 °F /  -1.6 °C 30.2in /  1022.2hPa NNE 3.5mph /  5.6km/h 3.5mph /  5.6km/h 94% 0in /  0.0mm 0.00 W/m2 CLR
04:09 30.6 °F /  -0.8 °C 29.1 °F /  -1.6 °C 30.2in /  1022.3hPa NNE 3.5mph /  5.6km/h 3.5mph /  5.6km/h 94% 0in /  0.0mm 0.00 W/m2 CLR
04:14 30.6 °F /  -0.8 °C 29.1 °F /  -1.6 °C 30.2in /  1022.2hPa NNE 3.5mph /  5.6km/h 3.5mph /  5.6km/h 94% 0in /  0.0mm 0.00 W/m2 CLR
04:19 30.6 °F /  -0.8 °C 29.1 °F /  -1.6 °C 30.2in /  1022.2hPa NNE 3.5mph /  5.6km/h 3.5mph /  5.6km/h 94% 0in /  0.0mm 0.00 W/m2 CLR
04:24 30.7 °F /  -0.7 °C 29.1 °F /  -1.6 °C 30.2in /  1022.1hPa NNE 3.5mph /  5.6km/h 3.5mph /  5.6km/h 94% 0in /  0.0mm 0.00 W/m2 CLR
04:29 30.7 °F /  -0.7 °C 29.3 °F /  -1.5 °C 30.2in /  1022.1hPa NNE 3.5mph /  5.6km/h 3.5mph /  5.6km/h 94% 0in /  0.0mm 0.00 W/m2 CLR
04:34 30.7 °F /  -0.7 °C 29.1 °F /  -1.6 °C 30.2in /  1022.2hPa NNE 2.3mph /  3.7km/h 2.3mph /  3.7km/h 94% 0in /  0.0mm 0.00 W/m2
04:39 30.6 °F /  -0.8 °C 29.1 °F /  -1.6 °C 30.2in /  1022.1hPa NNE 2.3mph /  3.7km/h 2.3mph /  3.7km/h 94% 0in /  0.0mm 0.00 W/m2
04:44 30.6 °F /  -0.8 °C 29.1 °F /  -1.6 °C 30.2in /  1022.1hPa NNE 2.3mph /  3.7km/h 2.3mph /  3.7km/h 94% 0in /  0.0mm 0.00 W/m2
04:49 30.6 °F /  -0.8 °C 28.9 °F /  -1.7 °C 30.2in /  1022.1hPa NNE 2.3mph /  3.7km/h 2.3mph /  3.7km/h 94% 0in /  0.0mm 0.00 W/m2
04:54 30.6 °F /  -0.8 °C 28.9 °F /  -1.7 °C 30.2in /  1022.0hPa NNE 2.3mph /  3.7km/h 2.3mph /  3.7km/h 94% 0in /  0.0mm 0.00 W/m2
04:59 30.4 °F /  -0.9 °C 28.9 °F /  -1.7 °C 30.2in /  1022.0hPa NNE 2.3mph /  3.7km/h 2.3mph /  3.7km/h 94% 0in /  0.0mm 0.00 W/m2
05:04 30.4 °F /  -0.9 °C 28.9 °F /  -1.7 °C 30.2in /  1022.1hPa NE 3.5mph /  5.6km/h 3.5mph /  5.6km/h 94% 0in /  0.0mm 0.00 W/m2 CLR
05:09 30.4 °F /  -0.9 °C 28.9 °F /  -1.7 °C 30.2in /  1022.1hPa NE 3.5mph /  5.6km/h 3.5mph /  5.6km/h 94% 0in /  0.0mm 0.00 W/m2 CLR
05:14 30.4 °F /  -0.9 °C 28.9 °F /  -1.7 °C 30.2in /  1022.1hPa NE 3.5mph /  5.6km/h 3.5mph /  5.6km/h 95% 0in /  0.0mm 0.00 W/m2 CLR
05:19 30.4 °F /  -0.9 °C 28.9 °F /  -1.7 °C 30.2in /  1022.1hPa NE 3.5mph /  5.6km/h 3.5mph /  5.6km/h 95% 0in /  0.0mm 0.00 W/m2 CLR
05:24 30.4 °F /  -0.9 °C 28.9 °F /  -1.7 °C 30.2in /  1022.0hPa NE 3.5mph /  5.6km/h 3.5mph /  5.6km/h 95% 0in /  0.0mm 0.00 W/m2 CLR
05:29 30.2 °F /  -1.0 °C 28.9 °F /  -1.7 °C 30.2in /  1022.1hPa NE 3.5mph /  5.6km/h 3.5mph /  5.6km/h 95% 0in /  0.0mm 0.00 W/m2 CLR
05:34 30.2 °F /  -1.0 °C 28.9 °F /  -1.7 °C 30.2in /  1022.1hPa NE 4.6mph /  7.4km/h 4.6mph /  7.4km/h 95% 0in /  0.0mm 0.00 W/m2 CLR
05:39 30.2 °F /  -1.0 °C 28.9 °F /  -1.7 °C 30.2in /  1022.2hPa NE 4.6mph /  7.4km/h 4.6mph /  7.4km/h 95% 0in /  0.0mm 0.00 W/m2 CLR
05:44 30.2 °F /  -1.0 °C 28.9 °F /  -1.7 °C 30.2in /  1022.2hPa NE 4.6mph /  7.4km/h 4.6mph /  7.4km/h 95% 0in /  0.0mm 0.00 W/m2 CLR
05:49 30.2 °F /  -1.0 °C 28.9 °F /  -1.7 °C 30.2in /  1022.1hPa NE 4.6mph /  7.4km/h 4.6mph /  7.4km/h 95% 0in /  0.0mm 0.00 W/m2 CLR
05:54 30 °F /  -1.1 °C 28.8 °F /  -1.8 °C 30.2in /  1022.1hPa NE 4.6mph /  7.4km/h 4.6mph /  7.4km/h 95% 0in /  0.0mm 0.00 W/m2 CLR
05:59 30 °F /  -1.1 °C 28.8 °F /  -1.8 °C 30.2in /  1022.2hPa NE 4.6mph /  7.4km/h 4.6mph /  7.4km/h 95% 0in /  0.0mm 0.00 W/m2 CLR
06:04 30 °F /  -1.1 °C 28.8 °F /  -1.8 °C 30.2in /  1022.2hPa ENE 3.5mph /  5.6km/h 3.5mph /  5.6km/h 95% 0in /  0.0mm 0.00 W/m2 CLR
06:09 30 °F /  -1.1 °C 28.8 °F /  -1.8 °C 30.2in /  1022.1hPa ENE 3.5mph /  5.6km/h 3.5mph /  5.6km/h 95% 0in /  0.0mm 0.00 W/m2 CLR
06:14 30 °F /  -1.1 °C 28.8 °F /  -1.8 °C 30.2in /  1022.1hPa ENE 3.5mph /  5.6km/h 3.5mph /  5.6km/h 95% 0in /  0.0mm 0.00 W/m2 CLR
06:19 30 °F /  -1.1 °C 28.8 °F /  -1.8 °C 30.2in /  1022.1hPa ENE 3.5mph /  5.6km/h 3.5mph /  5.6km/h 95% 0in /  0.0mm 0.00 W/m2 CLR
06:24 30 °F /  -1.1 °C 28.8 °F /  -1.8 °C 30.2in /  1022.1hPa ENE 3.5mph /  5.6km/h 3.5mph /  5.6km/h 95% 0in /  0.0mm 0.00 W/m2 CLR
06:29 30 °F /  -1.1 °C 28.8 °F /  -1.8 °C 30.2in /  1022.1hPa ENE 3.5mph /  5.6km/h 3.5mph /  5.6km/h 95% 0in /  0.0mm 0.00 W/m2 CLR
06:34 30 °F /  -1.1 °C 28.8 °F /  -1.8 °C 30.2in /  1022.1hPa NE 3.5mph /  5.6km/h 3.5mph /  5.6km/h 95% 0in /  0.0mm 0.00 W/m2 CLR
06:39 30 °F /  -1.1 °C 28.8 °F /  -1.8 °C 30.2in /  1022.2hPa NE 3.5mph /  5.6km/h 3.5mph /  5.6km/h 95% 0in /  0.0mm 0.00 W/m2 CLR
06:44 30 °F /  -1.1 °C 28.8 °F /  -1.8 °C 30.2in /  1022.2hPa NE 3.5mph /  5.6km/h 3.5mph /  5.6km/h 95% 0in /  0.0mm 0.00 W/m2 CLR
06:49 30 °F /  -1.1 °C 28.8 °F /  -1.8 °C 30.2in /  1022.2hPa NE 3.5mph /  5.6km/h 3.5mph /  5.6km/h 95% 0in /  0.0mm 0.00 W/m2 CLR
06:54 30 °F /  -1.1 °C 28.8 °F /  -1.8 °C 30.2in /  1022.4hPa NE 3.5mph /  5.6km/h 3.5mph /  5.6km/h 95% 0in /  0.0mm 0.00 W/m2 CLR
06:59 30 °F /  -1.1 °C 28.8 °F /  -1.8 °C 30.2in /  1022.4hPa NE 3.5mph /  5.6km/h 3.5mph /  5.6km/h 95% 0in /  0.0mm 0.00 W/m2 CLR
07:04 30 °F /  -1.1 °C 28.8 °F /  -1.8 °C 30.2in /  1022.5hPa NE 3.5mph /  5.6km/h 3.5mph /  5.6km/h 95% 0in /  0.0mm 0.00 W/m2 CLR
07:09 30 °F /  -1.1 °C 28.8 °F /  -1.8 °C 30.2in /  1022.6hPa NE 3.5mph /  5.6km/h 3.5mph /  5.6km/h 95% 0in /  0.0mm 0.00 W/m2 CLR
07:14 30 °F /  -1.1 °C 28.8 °F /  -1.8 °C 30.2in /  1022.5hPa NE 3.5mph /  5.6km/h 3.5mph /  5.6km/h 95% 0in /  0.0mm 0.00 W/m2 CLR
07:19 30 °F /  -1.1 °C 28.8 °F /  -1.8 °C 30.2in /  1022.6hPa NE 3.5mph /  5.6km/h 3.5mph /  5.6km/h 95% 0in /  0.0mm 0.00 W/m2 CLR
07:24 30 °F /  -1.1 °C 28.8 °F /  -1.8 °C 30.2in /  1022.6hPa NE 3.5mph /  5.6km/h 3.5mph /  5.6km/h 95% 0in /  0.0mm 0.00 W/m2 CLR
07:29 30 °F /  -1.1 °C 28.8 °F /  -1.8 °C 30.2in /  1022.7hPa NE 3.5mph /  5.6km/h 3.5mph /  5.6km/h 95% 0in /  0.0mm 0.00 W/m2 CLR
07:34 30 °F /  -1.1 °C 28.8 °F /  -1.8 °C 30.2in /  1022.8hPa NE 3.5mph /  5.6km/h 3.5mph /  5.6km/h 95% 0in /  0.0mm 0.00 W/m2 CLR
07:39 30 °F /  -1.1 °C 28.8 °F /  -1.8 °C 30.2in /  1022.8hPa NE 3.5mph /  5.6km/h 3.5mph /  5.6km/h 95% 0in /  0.0mm 0.00 W/m2 CLR
07:44 30 °F /  -1.1 °C 28.8 °F /  -1.8 °C 30.2in /  1022.8hPa NE 3.5mph /  5.6km/h 3.5mph /  5.6km/h 95% 0in /  0.0mm 0.00 W/m2 CLR
07:49 30 °F /  -1.1 °C 28.8 °F /  -1.8 °C 30.2in /  1022.9hPa NE 3.5mph /  5.6km/h 3.5mph /  5.6km/h 95% 0in /  0.0mm 0.00 W/m2 CLR
07:54 30 °F /  -1.1 °C 28.8 °F /  -1.8 °C 30.2in /  1023.0hPa NE 3.5mph /  5.6km/h 3.5mph /  5.6km/h 95% 0in /  0.0mm 0.00 W/m2 CLR
07:59 30.4 °F /  -0.9 °C 28.9 °F /  -1.7 °C 30.2in /  1023.0hPa NE 3.5mph /  5.6km/h 3.5mph /  5.6km/h 95% 0in /  0.0mm 0.00 W/m2 CLR
08:04 30.4 °F /  -0.9 °C 29.1 °F /  -1.6 °C 30.2in /  1023.1hPa NE 3.5mph /  5.6km/h 3.5mph /  5.6km/h 95% 0in /  0.0mm 0.00 W/m2 CLR
08:09 30.6 °F /  -0.8 °C 29.1 °F /  -1.6 °C 30.2in /  1023.1hPa NE 3.5mph /  5.6km/h 3.5mph /  5.6km/h 95% 0in /  0.0mm 0.00 W/m2 CLR
08:14 30.6 °F /  -0.8 °C 29.1 °F /  -1.6 °C 30.2in /  1023.2hPa NE 3.5mph /  5.6km/h 3.5mph /  5.6km/h 95% 0in /  0.0mm 0.00 W/m2 CLR
08:19 30.7 °F /  -0.7 °C 29.5 °F /  -1.4 °C 30.2in /  1023.2hPa NE 3.5mph /  5.6km/h 3.5mph /  5.6km/h 95% 0in /  0.0mm 0.00 W/m2 CLR
08:24 30.7 °F /  -0.7 °C 29.5 °F /  -1.4 °C 30.2in /  1023.2hPa NE 3.5mph /  5.6km/h 3.5mph /  5.6km/h 95% 0in /  0.0mm 0.00 W/m2 CLR
08:29 30.7 °F /  -0.7 °C 29.5 °F /  -1.4 °C 30.2in /  1023.3hPa NE 3.5mph /  5.6km/h 3.5mph /  5.6km/h 95% 0in /  0.0mm 0.00 W/m2 CLR
08:34 30.7 °F /  -0.7 °C 29.5 °F /  -1.4 °C 30.2in /  1023.4hPa NNE 2.3mph /  3.7km/h 2.3mph /  3.7km/h 95% 0in /  0.0mm 0.00 W/m2 SCT
08:39 30.7 °F /  -0.7 °C 29.5 °F /  -1.4 °C 30.2in /  1023.5hPa NNE 2.3mph /  3.7km/h 2.3mph /  3.7km/h 95% 0in /  0.0mm 0.00 W/m2 SCT
08:44 30.9 °F /  -0.6 °C 29.7 °F /  -1.3 °C 30.2in /  1023.5hPa NNE 2.3mph /  3.7km/h 2.3mph /  3.7km/h 95% 0in /  0.0mm 0.00 W/m2 SCT
08:49 30.9 °F /  -0.6 °C 29.7 °F /  -1.3 °C 30.2in /  1023.4hPa NNE 2.3mph /  3.7km/h 2.3mph /  3.7km/h 95% 0in /  0.0mm 5.00 W/m2 SCT
08:54 30.9 °F /  -0.6 °C 29.7 °F /  -1.3 °C 30.2in /  1023.5hPa NNE 2.3mph /  3.7km/h 2.3mph /  3.7km/h 95% 0in /  0.0mm 7.00 W/m2 SCT
08:59 30.9 °F /  -0.6 °C 29.7 °F /  -1.3 °C 30.2in /  1023.6hPa NNE 2.3mph /  3.7km/h 2.3mph /  3.7km/h 95% 0in /  0.0mm 9.00 W/m2 SCT
09:04 30.9 °F /  -0.6 °C 29.7 °F /  -1.3 °C 30.2in /  1023.6hPa NE 2.3mph /  3.7km/h 2.3mph /  3.7km/h 95% 0in /  0.0mm 11.00 W/m2 BKN
09:09 30.9 °F /  -0.6 °C 29.7 °F /  -1.3 °C 30.2in /  1023.7hPa NE 2.3mph /  3.7km/h 2.3mph /  3.7km/h 95% 0in /  0.0mm 12.00 W/m2 BKN
09:14 30.9 °F /  -0.6 °C 29.7 °F /  -1.3 °C 30.2in /  1023.7hPa NE 2.3mph /  3.7km/h 2.3mph /  3.7km/h 95% 0in /  0.0mm 12.00 W/m2 BKN
09:19 30.9 °F /  -0.6 °C 29.7 °F /  -1.3 °C 30.2in /  1023.7hPa NE 2.3mph /  3.7km/h 2.3mph /  3.7km/h 95% 0in /  0.0mm 12.00 W/m2 BKN
09:24 30.9 °F /  -0.6 °C 29.7 °F /  -1.3 °C 30.2in /  1023.7hPa NE 2.3mph /  3.7km/h 2.3mph /  3.7km/h 95% 0in /  0.0mm 14.00 W/m2 BKN
09:29 31.1 °F /  -0.5 °C 29.8 °F /  -1.2 °C 30.2in /  1023.7hPa NE 2.3mph /  3.7km/h 2.3mph /  3.7km/h 95% 0in /  0.0mm 16.00 W/m2 BKN
09:34 31.3 °F /  -0.4 °C 29.8 °F /  -1.2 °C 30.2in /  1023.7hPa NE 3.5mph /  5.6km/h 3.5mph /  5.6km/h 95% 0in /  0.0mm 16.00 W/m2 BKN
09:39 31.3 °F /  -0.4 °C 29.8 °F /  -1.2 °C 30.2in /  1023.7hPa NE 3.5mph /  5.6km/h 3.5mph /  5.6km/h 95% 0in /  0.0mm 18.00 W/m2 BKN
09:44 31.3 °F /  -0.4 °C 30 °F /  -1.1 °C 30.2in /  1023.7hPa NE 3.5mph /  5.6km/h 3.5mph /  5.6km/h 95% 0in /  0.0mm 19.00 W/m2 BKN
09:49 31.5 °F /  -0.3 °C 30.4 °F /  -0.9 °C 30.2in /  1023.7hPa NE 3.5mph /  5.6km/h 3.5mph /  5.6km/h 96% 0in /  0.0mm 19.00 W/m2 BKN
09:54 31.5 °F /  -0.3 °C 30.4 °F /  -0.9 °C 30.2in /  1023.7hPa NE 3.5mph /  5.6km/h 3.5mph /  5.6km/h 96% 0in /  0.0mm 21.00 W/m2 BKN
09:59 31.5 °F /  -0.3 °C 30.6 °F /  -0.8 °C 30.2in /  1023.8hPa NE 3.5mph /  5.6km/h 3.5mph /  5.6km/h 96% 0in /  0.0mm 21.00 W/m2 BKN
10:04 31.6 °F /  -0.2 °C 30.6 °F /  -0.8 °C 30.2in /  1023.8hPa ENE 4.6mph /  7.4km/h 4.6mph /  7.4km/h 96% 0in /  0.0mm 21.00 W/m2 FEW
10:09 31.6 °F /  -0.2 °C 30.4 °F /  -0.9 °C 30.2in /  1023.8hPa ENE 4.6mph /  7.4km/h 4.6mph /  7.4km/h 95% 0in /  0.0mm 23.00 W/m2 FEW
10:14 31.8 °F /  -0.1 °C 30.6 °F /  -0.8 °C 30.2in /  1023.8hPa ENE 4.6mph /  7.4km/h 4.6mph /  7.4km/h 95% 0in /  0.0mm 21.00 W/m2 FEW
10:19 31.8 °F /  -0.1 °C 30.9 °F /  -0.6 °C 30.2in /  1023.9hPa ENE 4.6mph /  7.4km/h 4.6mph /  7.4km/h 96% 0in /  0.0mm 23.00 W/m2 FEW
10:24 32 °F /  0.0 °C 30.9 °F /  -0.6 °C 30.2in /  1023.9hPa ENE 4.6mph /  7.4km/h 4.6mph /  7.4km/h 96% 0in /  0.0mm 26.00 W/m2 FEW
10:29 32.2 °F /  0.1 °C 31.1 °F /  -0.5 °C 30.2in /  1023.9hPa ENE 4.6mph /  7.4km/h 4.6mph /  7.4km/h 96% 0in /  0.0mm 28.00 W/m2 FEW
10:34 32.4 °F /  0.2 °C 31.3 °F /  -0.4 °C 30.2in /  1024.0hPa ENE 5.8mph /  9.3km/h 5.8mph /  9.3km/h 96% 0in /  0.0mm 33.00 W/m2 OVC
10:39 32.4 °F /  0.2 °C 31.5 °F /  -0.3 °C 30.2in /  1024.0hPa ENE 5.8mph /  9.3km/h 5.8mph /  9.3km/h 96% 0in /  0.0mm 32.00 W/m2 OVC
10:44 32.5 °F /  0.3 °C 31.3 °F /  -0.4 °C 30.2in /  1024.0hPa ENE 5.8mph /  9.3km/h 5.8mph /  9.3km/h 95% 0in /  0.0mm 32.00 W/m2 OVC
10:49 32.5 °F /  0.3 °C 31.6 °F /  -0.2 °C 30.2in /  1024.0hPa ENE 5.8mph /  9.3km/h 5.8mph /  9.3km/h 96% 0in /  0.0mm 35.00 W/m2 OVC
10:54 32.7 °F /  0.4 °C 31.6 °F /  -0.2 °C 30.2in /  1024.0hPa ENE 5.8mph /  9.3km/h 5.8mph /  9.3km/h 96% 0in /  0.0mm 42.00 W/m2 OVC
10:59 32.9 °F /  0.5 °C 31.6 °F /  -0.2 °C 30.2in /  1024.0hPa ENE 5.8mph /  9.3km/h 5.8mph /  9.3km/h 95% 0in /  0.0mm 90.00 W/m2 OVC
11:04 33.1 °F /  0.6 °C 32.2 °F /  0.1 °C 30.2in /  1024.1hPa ENE 6.9mph /  11.1km/h 6.9mph /  11.1km/h 96% 0in /  0.0mm 83.00 W/m2 OVC
11:09 33.3 °F /  0.7 °C 32.4 °F /  0.2 °C 30.2in /  1024.0hPa ENE 6.9mph /  11.1km/h 6.9mph /  11.1km/h 96% 0in /  0.0mm 70.00 W/m2 OVC
11:14 33.4 °F /  0.8 °C 32.2 °F /  0.1 °C 30.2in /  1024.0hPa ENE 6.9mph /  11.1km/h 6.9mph /  11.1km/h 95% 0in /  0.0mm 74.00 W/m2 OVC
11:19 33.6 °F /  0.9 °C 32.7 °F /  0.4 °C 30.2in /  1024.0hPa ENE 6.9mph /  11.1km/h 6.9mph /  11.1km/h 96% 0in /  0.0mm 83.00 W/m2 OVC
11:24 33.6 °F /  0.9 °C 32.7 °F /  0.4 °C 30.2in /  1024.0hPa ENE 6.9mph /  11.1km/h 6.9mph /  11.1km/h 96% 0in /  0.0mm 84.00 W/m2 OVC
11:29 33.6 °F /  0.9 °C 32.4 °F /  0.2 °C 30.2in /  1024.0hPa ENE 6.9mph /  11.1km/h 6.9mph /  11.1km/h 95% 0.01in /  0.2mm 90.00 W/m2 RA
11:34 33.8 °F /  1.0 °C 32.5 °F /  0.3 °C 30.2in /  1023.9hPa ENE 8.1mph /  13.0km/h 8.1mph /  13.0km/h 95% 0.01in /  0.2mm 81.00 W/m2 RA
11:39 34 °F /  1.1 °C 32.5 °F /  0.3 °C 30.2in /  1023.9hPa ENE 8.1mph /  13.0km/h 8.1mph /  13.0km/h 95% 0.01in /  0.2mm 93.00 W/m2 BKN
11:44 34 °F /  1.1 °C 32.7 °F /  0.4 °C 30.2in /  1023.8hPa ENE 8.1mph /  13.0km/h 8.1mph /  13.0km/h 95% 0.01in /  0.2mm 84.00 W/m2 BKN
11:49 34.2 °F /  1.2 °C 32.9 °F /  0.5 °C 30.2in /  1023.8hPa ENE 8.1mph /  13.0km/h 8.1mph /  13.0km/h 95% 0.01in /  0.2mm 58.00 W/m2 BKN
11:54 34.3 °F /  1.3 °C 33.1 °F /  0.6 °C 30.2in /  1023.7hPa ENE 8.1mph /  13.0km/h 8.1mph /  13.0km/h 95% 0.01in /  0.2mm 49.00 W/m2 BKN
11:59 34.3 °F /  1.3 °C 33.1 °F /  0.6 °C 30.2in /  1023.7hPa ENE 8.1mph /  13.0km/h 8.1mph /  13.0km/h 95% 0.01in /  0.2mm 46.00 W/m2 BKN
12:04 34.3 °F /  1.3 °C 32.7 °F /  0.4 °C 30.2in /  1023.6hPa ENE 8.1mph /  13.0km/h 8.1mph /  13.0km/h 94% 0.01in /  0.2mm 47.00 W/m2 OVC
12:09 34.3 °F /  1.3 °C 32.9 °F /  0.5 °C 30.2in /  1023.6hPa ENE 8.1mph /  13.0km/h 8.1mph /  13.0km/h 94% 0.01in /  0.2mm 51.00 W/m2 OVC
Rotterdam Beverwaard Nederland
Compliments of Weather Underground - 2 mb